Marseillais 6 — FQSJ — position and weather

sailwx.info

Track history (hours):
 
Tides and Currents Weather Stations Pressure Air Temp Water Temp Dewpoint Dewpoint Depression Visibility Wind Speed Wind Dir Waves Ship Positions

Marseillais 6

Last reported at 2017-Feb-24 02:12 UTC. Time now 2017-Feb-24 03:46 UTC.
Position N 43°26' E 004°54'.

Length 35 m; draft 5 m.

Type: Tug. MMSI: 227016900.

Date/timePositionNaut miles runAvg speedWind from/ knotsBaromVisibWave heightAir tempDewpointWater temp
2017-Feb-24 02:12N 43°26' E 004°54'0 0.0
2017-Feb-24 00:12N 43°26' E 004°54'2 1.2
2017-Feb-23 22:12N 43°25' E 004°51'2 1.2
2017-Feb-23 20:09N 43°26' E 004°54'1 0.7
2017-Feb-23 18:13N 43°24' E 004°53'1 0.3
2017-Feb-23 14:14N 43°26' E 004°54'0 0.0
2017-Feb-23 12:14N 43°26' E 004°54'1 0.4
2017-Feb-23 10:14N 43°25' E 004°54'1 0.4
2017-Feb-23 08:15N 43°26' E 004°54'0 0.0
2017-Feb-23 06:15N 43°26' E 004°54'0 0.0
2017-Feb-23 02:16N 43°26' E 004°54'1 0.6
2017-Feb-23 00:16N 43°24' E 004°53'1 0.6
2017-Feb-22 22:16N 43°26' E 004°54'0 0.0
2017-Feb-22 20:17N 43°26' E 004°54'0 0.0
2017-Feb-22 18:17N 43°26' E 004°54'0 0.0
2017-Feb-22 16:17N 43°26' E 004°54'0 0.0
2017-Feb-22 14:18N 43°26' E 004°54'0 0.0
2017-Feb-22 12:18N 43°26' E 004°54'2 1.2
2017-Feb-22 10:21N 43°24' E 004°56'2 1.2
2017-Feb-22 08:19N 43°26' E 004°54'0 0.0
2017-Feb-22 06:19N 43°26' E 004°54'1 0.5
2017-Feb-22 04:19N 43°25' E 004°54'1 0.5
2017-Feb-22 02:20N 43°26' E 004°54'0 0.0
2017-Feb-22 00:20N 43°26' E 004°54'0 0.0
2017-Feb-21 22:20N 43°26' E 004°54'0 0.0
2017-Feb-21 20:21N 43°26' E 004°54'2 1.1
2017-Feb-21 18:21N 43°24' E 004°51'1 0.7
2017-Feb-21 16:22N 43°25' E 004°53'5 6.2
2017-Feb-21 15:33N 43°24' E 004°60'1 1.1
2017-Feb-21 14:33N 43°23' E 004°59'1 0.9
2017-Feb-21 13:33N 43°24' E 004°59'4 3.6
2017-Feb-21 12:22N 43°26' E 004°54'0 0.0
2017-Feb-21 10:22N 43°26' E 004°54'0 0.0
2017-Feb-21 08:23N 43°26' E 004°54'0 0.0
2017-Feb-21 06:23N 43°26' E 004°54'0 0.0
2017-Feb-21 04:23N 43°26' E 004°54'1 0.5
2017-Feb-21 02:24N 43°25' E 004°53'1 0.5
2017-Feb-21 00:24N 43°26' E 004°54'0 0.1
2017-Feb-20 22:24N 43°26' E 004°54'0 0.0
2017-Feb-20 20:25N 43°26' E 004°54'0 0.1
2017-Feb-20 18:25N 43°26' E 004°54'0 0.0
2017-Feb-20 16:25N 43°26' E 004°54'0 0.0
2017-Feb-20 14:25N 43°26' E 004°54'0 0.0
2017-Feb-20 12:26N 43°26' E 004°54'0 0.1
2017-Feb-20 11:19N 43°26' E 004°54'0 0.1
2017-Feb-20 10:33N 43°26' E 004°54'2 0.9
2017-Feb-20 08:26N 43°24' E 004°52'2 1.1
2017-Feb-20 06:27N 43°24' E 004°55'3 3.1
2017-Feb-20 05:33N 43°24' E 004°59'0 0.5
2017-Feb-20 04:33N 43°24' E 004°60'7 3.3
2017-Feb-20 02:27N 43°25' E 004°50'6 6.4
2017-Feb-20 01:33N 43°23' E 004°58'1 1.5
2017-Feb-20 00:33N 43°24' E 004°60'1 0.6
2017-Feb-19 23:33N 43°24' E 004°59'0 0.0
2017-Feb-19 22:33N 43°24' E 004°59'0 0.0
2017-Feb-19 21:33N 43°24' E 004°59'0 0.0
2017-Feb-19 20:33N 43°24' E 004°59'0 0.0
2017-Feb-19 19:33N 43°24' E 004°59'0 0.0
2017-Feb-19 18:33N 43°24' E 004°59'0 0.0
2017-Feb-19 17:33N 43°24' E 004°59'0 0.0
2017-Feb-19 16:33N 43°24' E 004°59'0 0.0
2017-Feb-19 15:33N 43°24' E 004°59'0 0.0
2017-Feb-19 14:33N 43°24' E 004°59'0 0.3
2017-Feb-19 13:34N 43°24' E 004°59'1 0.6
2017-Feb-19 12:14N 43°24' E 004°58'1 1.3
2017-Feb-19 11:33N 43°24' E 004°59'4 4.2
2017-Feb-19 10:30N 43°25' E 004°53'4 4.7
2017-Feb-19 09:33N 43°24' E 004°59'0 0.0
2017-Feb-19 08:33N 43°24' E 004°59'0 0.0
2017-Feb-19 07:33N 43°24' E 004°59'0 0.0
2017-Feb-19 06:33N 43°24' E 004°59'0 0.0
2017-Feb-19 05:33N 43°24' E 004°59'0 0.0
2017-Feb-19 04:33N 43°24' E 004°59'0 0.0
2017-Feb-19 03:33N 43°24' E 004°59'0 0.0
2017-Feb-19 02:33N 43°24' E 004°59'0 0.0
2017-Feb-19 01:33N 43°24' E 004°59'0 0.0
2017-Feb-19 00:33N 43°24' E 004°59'0 0.0
2017-Feb-18 23:33N 43°24' E 004°59'0 0.0
2017-Feb-18 22:33N 43°24' E 004°59'0 0.4
2017-Feb-18 21:33N 43°24' E 004°60'0 0.4
2017-Feb-18 20:33N 43°24' E 004°59'2 0.8
2017-Feb-18 18:33N 43°23' E 004°57'2 1.6
2017-Feb-18 17:33N 43°24' E 004°59'6 6.0
2017-Feb-18 16:33N 43°25' E 004°51'2 1.0
2017-Feb-18 14:33N 43°24' E 004°53'4 2.7
2017-Feb-18 13:09N 43°23' E 004°58'1 1.3
2017-Feb-18 12:33N 43°24' E 004°59'0 0.0
2017-Feb-18 11:33N 43°24' E 004°59'0 0.0
2017-Feb-18 10:33N 43°24' E 004°59'0 0.0
2017-Feb-18 09:33N 43°24' E 004°59'1 0.5
2017-Feb-18 08:34N 43°24' E 004°60'0 0.2
2017-Feb-18 07:33N 43°24' E 004°59'0 0.2
2017-Feb-18 06:33N 43°24' E 004°60'1 0.5
2017-Feb-18 05:33N 43°24' E 004°59'0 0.0
2017-Feb-18 04:33N 43°24' E 004°59'0 0.0
2017-Feb-18 03:33N 43°24' E 004°59'0 0.0
2017-Feb-18 02:33N 43°24' E 004°59'0 0.0
2017-Feb-18 01:33N 43°24' E 004°59'0 0.0
2017-Feb-18 00:33N 43°24' E 004°59'0 0.0
2017-Feb-17 23:33N 43°24' E 004°59'0 0.3
2017-Feb-17 22:33N 43°24' E 004°59'0 0.3
2017-Feb-17 21:33N 43°24' E 004°59'0 0.0
2017-Feb-17 20:33N 43°24' E 004°59'0 0.0
2017-Feb-17 19:33N 43°24' E 004°59'0 0.0
2017-Feb-17 18:33N 43°24' E 004°59'0 0.0
2017-Feb-17 17:33N 43°24' E 004°59'0 0.0
2017-Feb-17 16:33N 43°24' E 004°59'0 0.0
2017-Feb-17 15:33N 43°24' E 004°59'0 0.0
2017-Feb-17 14:33N 43°24' E 004°59'0 0.0
2017-Feb-17 13:33N 43°24' E 004°59'1 0.7
2017-Feb-17 12:33N 43°24' E 004°60'1 0.7
2017-Feb-17 11:33N 43°24' E 004°59'0 0.2
2017-Feb-17 10:33N 43°24' E 004°59'0 0.0
2017-Feb-17 09:33N 43°24' E 004°59'0 0.0
2017-Feb-17 08:33N 43°24' E 004°59'0 0.0
2017-Feb-17 07:33N 43°24' E 004°59'0 0.0
2017-Feb-17 06:33N 43°24' E 004°59'0 0.0
2017-Feb-17 05:33N 43°24' E 004°59'0 0.0
2017-Feb-17 04:33N 43°24' E 004°59'0 0.0
2017-Feb-17 03:33N 43°24' E 004°59'0 0.0
2017-Feb-17 02:33N 43°24' E 004°59'0 0.0
2017-Feb-17 01:33N 43°24' E 004°59'0 0.0
2017-Feb-17 00:33N 43°24' E 004°59'0 0.0
2017-Feb-16 23:33N 43°24' E 004°59'1 0.6
2017-Feb-16 22:33N 43°24' E 004°60'1 0.6
2017-Feb-16 21:33N 43°24' E 004°59'0 0.0
2017-Feb-16 20:33N 43°24' E 004°59'0 0.0
2017-Feb-16 19:33N 43°24' E 004°59'0 0.0
2017-Feb-16 18:33N 43°24' E 004°59'0 0.0
2017-Feb-16 17:33N 43°24' E 004°59'0 0.0
2017-Feb-16 16:33N 43°24' E 004°59'0 0.0
2017-Feb-16 15:33N 43°24' E 004°59'0 0.0
2017-Feb-16 14:33N 43°24' E 004°59'0 0.0
2017-Feb-16 13:33N 43°24' E 004°59'0 0.0
2017-Feb-16 12:33N 43°24' E 004°59'0 0.0
2017-Feb-16 11:33N 43°24' E 004°59'1 0.3
2017-Feb-16 09:17N 43°23' E 004°58'1 1.1
2017-Feb-16 08:33N 43°24' E 004°59'  
Track history (hours):
 
Tides and Currents Weather Stations Pressure Air Temp Water Temp Dewpoint Dewpoint Depression Visibility Wind Speed Wind Dir Waves Ship Positions

Marseillais 6

Last reported at 2017-Feb-24 02:12 UTC. Time now 2017-Feb-24 03:46 UTC.
Position N 43°26' E 004°54'.

Length 35 m; draft 5 m.

Type: Tug. MMSI: 227016900.

Date/timePositionNaut miles runAvg speedWind from/ knotsBaromVisibWave heightAir tempDewpointWater temp
2017-Feb-24 02:12N 43°26' E 004°54'0 0.0
2017-Feb-24 00:12N 43°26' E 004°54'2 1.2
2017-Feb-23 22:12N 43°25' E 004°51'2 1.2
2017-Feb-23 20:09N 43°26' E 004°54'1 0.7
2017-Feb-23 18:13N 43°24' E 004°53'1 0.3
2017-Feb-23 14:14N 43°26' E 004°54'0 0.0
2017-Feb-23 12:14N 43°26' E 004°54'1 0.4
2017-Feb-23 10:14N 43°25' E 004°54'1 0.4
2017-Feb-23 08:15N 43°26' E 004°54'0 0.0
2017-Feb-23 06:15N 43°26' E 004°54'0 0.0
2017-Feb-23 02:16N 43°26' E 004°54'1 0.6
2017-Feb-23 00:16N 43°24' E 004°53'1 0.6
2017-Feb-22 22:16N 43°26' E 004°54'0 0.0
2017-Feb-22 20:17N 43°26' E 004°54'0 0.0
2017-Feb-22 18:17N 43°26' E 004°54'0 0.0
2017-Feb-22 16:17N 43°26' E 004°54'0 0.0
2017-Feb-22 14:18N 43°26' E 004°54'0 0.0
2017-Feb-22 12:18N 43°26' E 004°54'2 1.2
2017-Feb-22 10:21N 43°24' E 004°56'2 1.2
2017-Feb-22 08:19N 43°26' E 004°54'0 0.0
2017-Feb-22 06:19N 43°26' E 004°54'1 0.5
2017-Feb-22 04:19N 43°25' E 004°54'1 0.5
2017-Feb-22 02:20N 43°26' E 004°54'0 0.0
2017-Feb-22 00:20N 43°26' E 004°54'0 0.0
2017-Feb-21 22:20N 43°26' E 004°54'0 0.0
2017-Feb-21 20:21N 43°26' E 004°54'2 1.1
2017-Feb-21 18:21N 43°24' E 004°51'1 0.7
2017-Feb-21 16:22N 43°25' E 004°53'5 6.2
2017-Feb-21 15:33N 43°24' E 004°60'1 1.1
2017-Feb-21 14:33N 43°23' E 004°59'1 0.9
2017-Feb-21 13:33N 43°24' E 004°59'4 3.6
2017-Feb-21 12:22N 43°26' E 004°54'0 0.0
2017-Feb-21 10:22N 43°26' E 004°54'0 0.0
2017-Feb-21 08:23N 43°26' E 004°54'0 0.0
2017-Feb-21 06:23N 43°26' E 004°54'0 0.0
2017-Feb-21 04:23N 43°26' E 004°54'1 0.5
2017-Feb-21 02:24N 43°25' E 004°53'1 0.5
2017-Feb-21 00:24N 43°26' E 004°54'0 0.1
2017-Feb-20 22:24N 43°26' E 004°54'0 0.0
2017-Feb-20 20:25N 43°26' E 004°54'0 0.1
2017-Feb-20 18:25N 43°26' E 004°54'0 0.0
2017-Feb-20 16:25N 43°26' E 004°54'0 0.0
2017-Feb-20 14:25N 43°26' E 004°54'0 0.0
2017-Feb-20 12:26N 43°26' E 004°54'0 0.1
2017-Feb-20 11:19N 43°26' E 004°54'0 0.1
2017-Feb-20 10:33N 43°26' E 004°54'2 0.9
2017-Feb-20 08:26N 43°24' E 004°52'2 1.1
2017-Feb-20 06:27N 43°24' E 004°55'3 3.1
2017-Feb-20 05:33N 43°24' E 004°59'0 0.5
2017-Feb-20 04:33N 43°24' E 004°60'7 3.3
2017-Feb-20 02:27N 43°25' E 004°50'6 6.4
2017-Feb-20 01:33N 43°23' E 004°58'1 1.5
2017-Feb-20 00:33N 43°24' E 004°60'1 0.6
2017-Feb-19 23:33N 43°24' E 004°59'0 0.0
2017-Feb-19 22:33N 43°24' E 004°59'0 0.0
2017-Feb-19 21:33N 43°24' E 004°59'0 0.0
2017-Feb-19 20:33N 43°24' E 004°59'0 0.0
2017-Feb-19 19:33N 43°24' E 004°59'0 0.0
2017-Feb-19 18:33N 43°24' E 004°59'0 0.0
2017-Feb-19 17:33N 43°24' E 004°59'0 0.0
2017-Feb-19 16:33N 43°24' E 004°59'0 0.0
2017-Feb-19 15:33N 43°24' E 004°59'0 0.0
2017-Feb-19 14:33N 43°24' E 004°59'0 0.3
2017-Feb-19 13:34N 43°24' E 004°59'1 0.6
2017-Feb-19 12:14N 43°24' E 004°58'1 1.3
2017-Feb-19 11:33N 43°24' E 004°59'4 4.2
2017-Feb-19 10:30N 43°25' E 004°53'4 4.7
2017-Feb-19 09:33N 43°24' E 004°59'0 0.0
2017-Feb-19 08:33N 43°24' E 004°59'0 0.0
2017-Feb-19 07:33N 43°24' E 004°59'0 0.0
2017-Feb-19 06:33N 43°24' E 004°59'0 0.0
2017-Feb-19 05:33N 43°24' E 004°59'0 0.0
2017-Feb-19 04:33N 43°24' E 004°59'0 0.0
2017-Feb-19 03:33N 43°24' E 004°59'0 0.0
2017-Feb-19 02:33N 43°24' E 004°59'0 0.0
2017-Feb-19 01:33N 43°24' E 004°59'0 0.0
2017-Feb-19 00:33N 43°24' E 004°59'0 0.0
2017-Feb-18 23:33N 43°24' E 004°59'0 0.0
2017-Feb-18 22:33N 43°24' E 004°59'0 0.4
2017-Feb-18 21:33N 43°24' E 004°60'0 0.4
2017-Feb-18 20:33N 43°24' E 004°59'2 0.8
2017-Feb-18 18:33N 43°23' E 004°57'2 1.6
2017-Feb-18 17:33N 43°24' E 004°59'6 6.0
2017-Feb-18 16:33N 43°25' E 004°51'2 1.0
2017-Feb-18 14:33N 43°24' E 004°53'4 2.7
2017-Feb-18 13:09N 43°23' E 004°58'1 1.3
2017-Feb-18 12:33N 43°24' E 004°59'0 0.0
2017-Feb-18 11:33N 43°24' E 004°59'0 0.0
2017-Feb-18 10:33N 43°24' E 004°59'0 0.0
2017-Feb-18 09:33N 43°24' E 004°59'1 0.5
2017-Feb-18 08:34N 43°24' E 004°60'0 0.2
2017-Feb-18 07:33N 43°24' E 004°59'0 0.2
2017-Feb-18 06:33N 43°24' E 004°60'1 0.5
2017-Feb-18 05:33N 43°24' E 004°59'0 0.0
2017-Feb-18 04:33N 43°24' E 004°59'0 0.0
2017-Feb-18 03:33N 43°24' E 004°59'0 0.0
2017-Feb-18 02:33N 43°24' E 004°59'0 0.0
2017-Feb-18 01:33N 43°24' E 004°59'0 0.0
2017-Feb-18 00:33N 43°24' E 004°59'0 0.0
2017-Feb-17 23:33N 43°24' E 004°59'0 0.3
2017-Feb-17 22:33N 43°24' E 004°59'0 0.3
2017-Feb-17 21:33N 43°24' E 004°59'0 0.0
2017-Feb-17 20:33N 43°24' E 004°59'0 0.0
2017-Feb-17 19:33N 43°24' E 004°59'0 0.0
2017-Feb-17 18:33N 43°24' E 004°59'0 0.0
2017-Feb-17 17:33N 43°24' E 004°59'0 0.0
2017-Feb-17 16:33N 43°24' E 004°59'0 0.0
2017-Feb-17 15:33N 43°24' E 004°59'0 0.0
2017-Feb-17 14:33N 43°24' E 004°59'0 0.0
2017-Feb-17 13:33N 43°24' E 004°59'1 0.7
2017-Feb-17 12:33N 43°24' E 004°60'1 0.7
2017-Feb-17 11:33N 43°24' E 004°59'0 0.2
2017-Feb-17 10:33N 43°24' E 004°59'0 0.0
2017-Feb-17 09:33N 43°24' E 004°59'0 0.0
2017-Feb-17 08:33N 43°24' E 004°59'0 0.0
2017-Feb-17 07:33N 43°24' E 004°59'0 0.0
2017-Feb-17 06:33N 43°24' E 004°59'0 0.0
2017-Feb-17 05:33N 43°24' E 004°59'0 0.0
2017-Feb-17 04:33N 43°24' E 004°59'0 0.0
2017-Feb-17 03:33N 43°24' E 004°59'0 0.0
2017-Feb-17 02:33N 43°24' E 004°59'0 0.0
2017-Feb-17 01:33N 43°24' E 004°59'0 0.0
2017-Feb-17 00:33N 43°24' E 004°59'0 0.0
2017-Feb-16 23:33N 43°24' E 004°59'1 0.6
2017-Feb-16 22:33N 43°24' E 004°60'1 0.6
2017-Feb-16 21:33N 43°24' E 004°59'0 0.0
2017-Feb-16 20:33N 43°24' E 004°59'0 0.0
2017-Feb-16 19:33N 43°24' E 004°59'0 0.0
2017-Feb-16 18:33N 43°24' E 004°59'0 0.0
2017-Feb-16 17:33N 43°24' E 004°59'0 0.0
2017-Feb-16 16:33N 43°24' E 004°59'0 0.0
2017-Feb-16 15:33N 43°24' E 004°59'0 0.0
2017-Feb-16 14:33N 43°24' E 004°59'0 0.0
2017-Feb-16 13:33N 43°24' E 004°59'0 0.0
2017-Feb-16 12:33N 43°24' E 004°59'0 0.0
2017-Feb-16 11:33N 43°24' E 004°59'1 0.3
2017-Feb-16 09:17N 43°23' E 004°58'1 1.1
2017-Feb-16 08:33N 43°24' E 004°59'  

Dump ship's entire track history